Time;durP1;ratioP1;P1;durP2;ratioP2;P2;SDS_P1;SDS_P2;PMS_P1;PMS_P2;Temp;Humidity;BMP_temperature;BMP_pressure;BME280_temperature;BME280_humidity;BME280_pressure;Samples;Min_cycle;Max_cycle;Signal;HPM_P1;HPM_P2
2021/09/16 00:01:01;;;;;;;19.40;7.32;;;16.60;92.30;;;;;;5093940;28;20220;-91
2021/09/16 00:03:26;;;;;;;17.13;6.40;;;16.50;92.30;;;;;;5094301;28;20205;-90
2021/09/16 00:05:52;;;;;;;16.02;5.93;;;16.60;92.20;;;;;;5093542;28;20175;-90
2021/09/16 00:08:18;;;;;;;16.73;6.20;;;16.60;92.30;;;;;;5093620;28;20182;-90
2021/09/16 00:10:43;;;;;;;18.13;6.25;;;16.60;92.30;;;;;;5093583;28;20673;-90
2021/09/16 00:13:09;;;;;;;16.20;5.57;;;16.60;92.20;;;;;;5093690;28;20255;-90
2021/09/16 00:15:35;;;;;;;9.18;5.25;;;16.50;92.20;;;;;;5093502;28;20256;-91
2021/09/16 00:18:02;;;;;;;8.90;5.45;;;16.50;92.20;;;;;;5093629;28;20213;-90
2021/09/16 00:20:28;;;;;;;15.25;6.68;;;16.50;92.10;;;;;;5093672;28;20170;-90
2021/09/16 00:22:54;;;;;;;10.82;5.00;;;16.50;92.10;;;;;;5094731;28;20283;-90
2021/09/16 00:25:20;;;;;;;17.17;5.78;;;16.50;91.90;;;;;;5093283;28;20275;-90
2021/09/16 00:27:46;;;;;;;16.88;6.20;;;16.50;91.90;;;;;;5094585;28;20174;-90
2021/09/16 00:30:12;;;;;;;13.65;6.18;;;16.50;91.70;;;;;;5094697;28;20178;-90
2021/09/16 00:32:38;;;;;;;19.45;6.50;;;16.50;91.70;;;;;;5093268;28;20260;-90
2021/09/16 00:35:07;;;;;;;14.80;6.38;;;16.50;91.70;;;;;;5094827;28;20237;-90
2021/09/16 00:37:33;;;;;;;15.15;6.07;;;16.50;91.70;;;;;;5093852;28;20262;-90
2021/09/16 00:39:59;;;;;;;14.32;6.38;;;16.50;91.60;;;;;;5094568;28;20170;-90
2021/09/16 00:42:25;;;;;;;13.63;5.75;;;16.50;91.70;;;;;;5092946;28;20190;-90
2021/09/16 00:44:51;;;;;;;16.02;5.55;;;16.40;91.60;;;;;;5093177;28;20224;-91
2021/09/16 00:47:17;;;;;;;10.45;5.22;;;16.40;91.40;;;;;;5092950;28;20174;-91
2021/09/16 00:49:46;;;;;;;11.57;5.18;;;16.40;91.60;;;;;;5093328;28;20265;-91
2021/09/16 00:52:13;;;;;;;13.35;5.07;;;16.40;91.50;;;;;;5093093;28;20689;-90
2021/09/16 00:54:43;;;;;;;12.50;4.95;;;16.40;91.40;;;;;;5092742;28;20206;-91
2021/09/16 00:57:12;;;;;;;12.98;4.78;;;16.30;91.40;;;;;;5092912;28;20561;-90
2021/09/16 00:59:38;;;;;;;11.70;5.20;;;16.30;91.40;;;;;;5092829;28;20251;-91
2021/09/16 01:02:03;;;;;;;13.60;4.38;;;16.30;91.40;;;;;;5092806;28;20222;-91
2021/09/16 01:04:31;;;;;;;9.65;4.07;;;16.30;91.30;;;;;;5092780;28;20654;-91
2021/09/16 01:06:57;;;;;;;13.25;4.20;;;16.20;91.20;;;;;;5092683;28;20170;-90
2021/09/16 01:09:26;;;;;;;12.48;4.07;;;16.20;91.30;;;;;;5092703;28;20210;-90
2021/09/16 01:11:53;;;;;;;14.77;4.75;;;16.20;91.30;;;;;;5092776;28;20224;-90
2021/09/16 01:14:24;;;;;;;11.82;4.55;;;16.20;91.40;;;;;;5092643;28;20205;-91
2021/09/16 01:16:50;;;;;;;11.43;5.00;;;16.20;91.30;;;;;;5092725;28;20197;-91
2021/09/16 01:19:16;;;;;;;11.73;4.90;;;16.20;91.20;;;;;;5092584;28;20171;-91
2021/09/16 01:21:42;;;;;;;8.10;4.25;;;16.10;91.20;;;;;;5092437;28;20195;-90
2021/09/16 01:24:07;;;;;;;12.27;4.93;;;16.20;91.10;;;;;;5092477;28;20259;-90
2021/09/16 01:26:33;;;;;;;13.77;4.53;;;16.10;90.80;;;;;;5093746;28;20174;-90
2021/09/16 01:29:11;;;;;;;7.40;3.67;;;16.10;90.90;;;;;;5092720;28;20200;-90
2021/09/16 01:31:41;;;;;;;18.10;4.50;;;16.00;90.70;;;;;;5092773;28;20272;-90
2021/09/16 01:34:08;;;;;;;17.42;4.30;;;16.00;90.80;;;;;;5092294;28;20174;-90
2021/09/16 01:36:35;;;;;;;13.90;4.05;;;16.00;90.90;;;;;;5092321;28;20178;-91
2021/09/16 01:39:04;;;;;;;6.47;3.70;;;15.90;91.10;;;;;;5093692;28;20194;-91
2021/09/16 01:41:30;;;;;;;10.10;3.75;;;15.90;91.00;;;;;;5091961;28;20197;-90
2021/09/16 01:43:55;;;;;;;11.43;3.75;;;15.90;91.00;;;;;;5092692;28;20170;-90
2021/09/16 01:46:21;;;;;;;9.07;3.08;;;15.90;90.90;;;;;;5092611;28;20557;-90
2021/09/16 01:48:47;;;;;;;9.18;3.90;;;15.90;90.60;;;;;;5092544;28;20197;-90
2021/09/16 01:51:13;;;;;;;11.00;3.75;;;15.90;90.60;;;;;;5092463;28;20185;-90
2021/09/16 01:53:39;;;;;;;6.95;2.30;;;15.80;90.40;;;;;;5093796;28;20177;-90
2021/09/16 01:56:04;;;;;;;8.43;3.13;;;15.80;90.30;;;;;;5095432;28;20233;-90
2021/09/16 01:58:30;;;;;;;9.35;2.42;;;15.80;90.30;;;;;;5097446;28;20591;-90
2021/09/16 02:00:57;;;;;;;10.38;2.78;;;15.80;90.20;;;;;;5096787;28;20281;-90
2021/09/16 02:03:22;;;;;;;9.23;2.33;;;15.80;90.00;;;;;;5096290;28;20217;-90
2021/09/16 02:05:48;;;;;;;7.50;2.15;;;15.80;89.80;;;;;;5097068;28;20179;-91
2021/09/16 02:08:14;;;;;;;6.50;2.30;;;15.70;90.00;;;;;;5096363;28;20278;-90
2021/09/16 02:10:40;;;;;;;6.82;2.58;;;15.70;89.90;;;;;;5096149;28;20185;-90
2021/09/16 02:13:05;;;;;;;6.38;1.90;;;15.70;89.90;;;;;;5096564;28;20247;-90
2021/09/16 02:15:31;;;;;;;6.35;2.08;;;15.70;89.90;;;;;;5096004;28;20209;-90
2021/09/16 02:17:56;;;;;;;8.07;2.47;;;15.70;89.50;;;;;;5097334;28;20574;-90
2021/09/16 02:20:22;;;;;;;5.53;2.35;;;15.60;89.30;;;;;;5096097;28;20629;-90
2021/09/16 02:22:48;;;;;;;10.88;2.30;;;15.60;89.10;;;;;;5096000;28;20201;-90
2021/09/16 02:25:16;;;;;;;7.28;2.20;;;15.60;89.10;;;;;;5096044;28;20183;-90
2021/09/16 02:27:42;;;;;;;7.88;2.28;;;15.50;89.20;;;;;;5096499;28;20638;-91
2021/09/16 02:30:14;;;;;;;10.20;1.98;;;15.50;89.50;;;;;;5097046;28;20201;-91
2021/09/16 02:32:39;;;;;;;6.27;1.70;;;15.40;89.20;;;;;;5096627;28;20252;-91
2021/09/16 02:35:06;;;;;;;9.17;1.53;;;15.40;89.00;;;;;;5096083;28;20206;-90
2021/09/16 02:37:32;;;;;;;7.25;1.77;;;15.40;88.60;;;;;;5095606;28;20174;-91
2021/09/16 02:39:57;;;;;;;7.13;1.80;;;15.40;89.20;;;;;;5095176;28;20186;-91
2021/09/16 02:42:23;;;;;;;9.63;1.90;;;15.30;89.30;;;;;;5095495;28;20221;-91
2021/09/16 02:44:49;;;;;;;9.83;1.83;;;15.30;89.30;;;;;;5095671;28;20559;-91
2021/09/16 02:47:14;;;;;;;5.33;1.70;;;15.30;89.50;;;;;;5094901;28;20218;-91
2021/09/16 02:49:41;;;;;;;8.37;1.70;;;15.20;89.50;;;;;;5095296;28;20175;-90
2021/09/16 02:52:07;;;;;;;8.63;2.07;;;15.20;89.60;;;;;;5095364;28;20553;-90
2021/09/16 02:54:35;;;;;;;7.93;1.83;;;15.10;89.70;;;;;;5095410;28;20206;-91
2021/09/16 02:57:01;;;;;;;9.73;2.08;;;15.20;89.80;;;;;;5095011;28;20556;-91
2021/09/16 02:59:27;;;;;;;6.23;2.27;;;15.10;89.80;;;;;;5095495;28;20174;-91
2021/09/16 03:01:52;;;;;;;13.23;3.37;;;15.00;90.10;;;;;;5095271;28;20340;-90
2021/09/16 03:04:18;;;;;;;4.97;1.50;;;15.00;90.10;;;;;;5095267;28;20186;-90
2021/09/16 03:06:46;;;;;;;8.10;1.43;;;15.00;90.00;;;;;;5093827;28;20175;-90
2021/09/16 03:09:25;;;;;;;;;;;;;;;;;;;;;
2021/09/16 03:11:50;;;;;;;10.73;2.20;;;15.00;90.00;;;;;;5095969;28;20190;-90
2021/09/16 03:14:16;;;;;;;10.70;1.73;;;15.00;90.00;;;;;;5095697;28;20600;-91
2021/09/16 03:16:42;;;;;;;11.00;1.90;;;14.90;90.10;;;;;;5094910;28;20179;-90
2021/09/16 03:19:08;;;;;;;8.93;1.60;;;14.80;90.20;;;;;;5094885;28;20611;-91
2021/09/16 03:21:34;;;;;;;6.87;1.73;;;14.80;90.10;;;;;;5096511;28;20198;-90
2021/09/16 03:24:00;;;;;;;9.23;1.80;;;14.80;90.10;;;;;;5095108;28;20178;-90
2021/09/16 03:26:25;;;;;;;7.83;1.93;;;14.80;90.10;;;;;;5096032;28;20253;-90
2021/09/16 03:28:51;;;;;;;9.80;2.00;;;14.70;90.40;;;;;;5095200;28;20535;-90
2021/09/16 03:31:17;;;;;;;5.77;1.70;;;14.70;90.40;;;;;;5094839;28;20277;-90
2021/09/16 03:33:43;;;;;;;5.63;1.50;;;14.70;90.30;;;;;;5094637;28;20179;-90
2021/09/16 03:36:08;;;;;;;12.33;1.80;;;14.70;90.30;;;;;;5094547;28;20206;-90
2021/09/16 03:38:34;;;;;;;5.87;1.63;;;14.70;90.30;;;;;;5095671;28;20173;-90
2021/09/16 03:41:00;;;;;;;5.03;1.33;;;14.70;90.30;;;;;;5094476;28;20179;-90
2021/09/16 03:43:26;;;;;;;4.03;1.50;;;14.70;90.40;;;;;;5095276;28;20545;-90
2021/09/16 03:45:52;;;;;;;9.33;2.40;;;14.60;90.50;;;;;;5094359;28;20232;-90
2021/09/16 03:48:17;;;;;;;8.63;2.00;;;14.60;90.40;;;;;;5095333;28;20196;-90
2021/09/16 03:50:43;;;;;;;8.47;1.60;;;14.60;90.60;;;;;;5095624;28;20175;-90
2021/09/16 03:53:09;;;;;;;8.87;1.63;;;14.50;90.50;;;;;;5094074;28;20198;-90
2021/09/16 03:55:34;;;;;;;12.20;1.77;;;14.50;90.70;;;;;;5094934;28;20194;-91
2021/09/16 03:58:00;;;;;;;5.13;1.80;;;14.50;90.80;;;;;;5094079;28;20653;-90
2021/09/16 04:00:31;;;;;;;5.20;1.27;;;14.50;90.80;;;;;;5093720;28;20182;-89
2021/09/16 04:03:17;;;;;;;9.83;1.70;;;14.50;90.70;;;;;;5095157;28;20198;-90
2021/09/16 04:05:42;;;;;;;6.43;1.73;;;14.50;90.70;;;;;;5094640;28;20176;-90
2021/09/16 04:08:14;;;;;;;8.93;1.50;;;14.60;90.70;;;;;;5095106;28;20265;-90
2021/09/16 04:10:42;;;;;;;7.43;1.57;;;14.60;90.80;;;;;;5094170;28;20201;-90
2021/09/16 04:13:08;;;;;;;6.00;1.67;;;14.50;90.70;;;;;;5093356;28;20213;-91
2021/09/16 04:15:42;;;;;;;8.93;2.63;;;14.50;90.70;;;;;;5093312;28;20206;-90
2021/09/16 04:18:08;;;;;;;19.90;2.07;;;14.60;90.70;;;;;;5093319;28;20199;-90
2021/09/16 04:20:34;;;;;;;4.57;1.47;;;14.50;90.70;;;;;;5093358;28;20269;-90
2021/09/16 04:22:59;;;;;;;10.57;1.33;;;14.50;91.00;;;;;;5093195;28;20191;-90
2021/09/16 04:25:25;;;;;;;7.20;2.10;;;14.40;90.90;;;;;;5094556;28;20657;-90
2021/09/16 04:27:51;;;;;;;5.00;1.57;;;14.50;91.00;;;;;;5094631;28;20186;-90
2021/09/16 04:30:17;;;;;;;8.67;1.80;;;14.50;90.90;;;;;;5093449;28;20213;-90
2021/09/16 04:32:43;;;;;;;5.13;1.40;;;14.40;90.90;;;;;;5093105;28;20202;-90
2021/09/16 04:35:09;;;;;;;12.43;1.80;;;14.40;90.90;;;;;;5093071;28;20792;-89
2021/09/16 04:37:35;;;;;;;6.40;1.53;;;14.40;91.20;;;;;;5094145;28;20170;-90
2021/09/16 04:40:01;;;;;;;5.40;1.80;;;14.40;91.30;;;;;;5093602;28;20540;-89
2021/09/16 04:42:29;;;;;;;7.13;1.90;;;14.40;91.30;;;;;;5093637;28;20354;-90
2021/09/16 04:44:57;;;;;;;6.30;1.50;;;14.40;91.30;;;;;;5092824;28;20178;-90
2021/09/16 04:47:23;;;;;;;6.90;1.80;;;14.40;91.30;;;;;;5094159;28;20182;-90
2021/09/16 04:49:49;;;;;;;6.90;1.93;;;14.30;91.50;;;;;;5093816;28;20175;-90
2021/09/16 04:52:15;;;;;;;6.40;2.40;;;14.30;91.60;;;;;;5092811;28;20261;-90
2021/09/16 04:54:42;;;;;;;10.37;2.33;;;14.30;91.70;;;;;;5094234;28;20334;-90
2021/09/16 04:57:08;;;;;;;6.10;1.70;;;14.30;91.70;;;;;;5092893;28;20711;-90
2021/09/16 04:59:35;;;;;;;9.10;2.00;;;14.30;91.70;;;;;;5093102;28;20539;-90
2021/09/16 05:02:00;;;;;;;8.13;2.27;;;14.30;91.70;;;;;;5092918;28;20244;-90
2021/09/16 05:04:26;;;;;;;11.73;2.40;;;14.30;91.70;;;;;;5092973;28;20179;-90
2021/09/16 05:06:52;;;;;;;7.33;2.00;;;14.30;91.80;;;;;;5092595;28;20174;-90
2021/09/16 05:09:17;;;;;;;3.87;2.10;;;14.30;91.80;;;;;;5092700;28;20214;-89
2021/09/16 05:11:43;;;;;;;6.07;2.57;;;14.30;91.90;;;;;;5092770;28;20213;-89
2021/09/16 05:14:09;;;;;;;6.63;2.33;;;14.30;91.70;;;;;;5092547;28;20228;-90
2021/09/16 05:16:35;;;;;;;6.80;2.67;;;14.30;91.80;;;;;;5092363;28;20205;-90
2021/09/16 05:19:02;;;;;;;8.73;3.13;;;14.30;91.80;;;;;;5093601;28;20194;-90
2021/09/16 05:21:27;;;;;;;11.17;2.97;;;14.30;91.80;;;;;;5093232;28;20195;-89
2021/09/16 05:23:53;;;;;;;5.27;2.80;;;14.30;91.80;;;;;;5092786;28;20179;-89
2021/09/16 05:26:19;;;;;;;14.50;3.53;;;14.30;91.90;;;;;;5094018;28;20178;-90
2021/09/16 05:28:45;;;;;;;11.80;2.73;;;14.30;91.90;;;;;;5092324;28;20183;-90
2021/09/16 05:31:11;;;;;;;7.00;2.77;;;14.30;92.00;;;;;;5092099;28;20551;-90
2021/09/16 05:33:37;;;;;;;6.37;2.90;;;14.30;92.00;;;;;;5092659;28;20182;-90
2021/09/16 05:36:04;;;;;;;11.13;3.30;;;14.30;92.10;;;;;;5092266;28;20206;-90
2021/09/16 05:38:30;;;;;;;12.07;3.37;;;14.30;92.10;;;;;;5093556;28;20171;-90
2021/09/16 05:40:56;;;;;;;6.27;3.13;;;14.30;92.10;;;;;;5092443;28;20631;-90
2021/09/16 05:43:21;;;;;;;6.40;2.87;;;14.30;92.20;;;;;;5092845;28;20281;-90
2021/09/16 05:45:47;;;;;;;8.10;3.30;;;14.30;92.10;;;;;;5092108;28;20182;-90
2021/09/16 05:48:13;;;;;;;12.27;3.03;;;14.30;92.20;;;;;;5092271;28;20232;-90
2021/09/16 05:50:39;;;;;;;8.30;3.53;;;14.30;92.20;;;;;;5092230;28;20191;-90
2021/09/16 05:53:05;;;;;;;7.53;3.40;;;14.30;92.10;;;;;;5092198;28;20204;-90
2021/09/16 05:55:31;;;;;;;10.27;3.40;;;14.30;92.20;;;;;;5092743;28;20626;-90
2021/09/16 05:57:57;;;;;;;7.17;3.53;;;14.40;92.20;;;;;;5092268;28;20208;-91
2021/09/16 06:00:23;;;;;;;7.97;3.60;;;14.40;92.30;;;;;;5092427;28;20267;-90
2021/09/16 06:02:50;;;;;;;10.70;4.50;;;14.40;92.30;;;;;;5092617;28;20271;-89
2021/09/16 06:05:16;;;;;;;7.97;3.70;;;14.50;92.30;;;;;;5092440;28;20228;-89
2021/09/16 06:07:42;;;;;;;9.30;3.73;;;14.50;92.20;;;;;;5092454;28;20704;-89
2021/09/16 06:10:09;;;;;;;15.33;4.37;;;14.50;92.20;;;;;;5092198;28;20213;-89
2021/09/16 06:12:35;;;;;;;10.50;4.43;;;14.50;92.40;;;;;;5092439;28;20206;-90
2021/09/16 06:15:01;;;;;;;16.30;5.00;;;14.50;92.50;;;;;;5092022;28;20202;-90
2021/09/16 06:17:26;;;;;;;12.13;5.50;;;14.50;92.80;;;;;;5092048;28;20171;-90
2021/09/16 06:19:52;;;;;;;23.40;5.97;;;14.50;93.00;;;;;;5091870;28;20174;-90
2021/09/16 06:22:18;;;;;;;16.60;5.23;;;14.50;93.10;;;;;;5092057;28;20266;-89
2021/09/16 06:24:44;;;;;;;10.03;5.27;;;14.50;93.40;;;;;;5092263;28;20190;-89
2021/09/16 06:27:10;;;;;;;11.63;6.00;;;14.40;93.60;;;;;;5091833;28;20179;-89
2021/09/16 06:29:36;;;;;;;10.23;5.20;;;14.40;93.70;;;;;;5091818;28;20261;-89
2021/09/16 06:32:02;;;;;;;13.03;5.97;;;14.50;93.70;;;;;;5092069;28;20199;-89
2021/09/16 06:34:28;;;;;;;11.43;5.80;;;14.40;93.70;;;;;;5093064;28;20233;-89
2021/09/16 06:36:53;;;;;;;11.00;6.67;;;14.50;93.70;;;;;;5092576;28;20183;-89
2021/09/16 06:39:19;;;;;;;18.70;6.43;;;14.60;93.60;;;;;;5091904;28;20171;-89
2021/09/16 06:41:45;;;;;;;15.57;7.03;;;14.60;93.50;;;;;;5093796;28;20561;-89
2021/09/16 06:44:11;;;;;;;17.17;6.67;;;14.60;93.30;;;;;;5095553;28;20174;-90
2021/09/16 06:46:36;;;;;;;17.63;6.73;;;14.70;93.30;;;;;;5095438;28;20231;-90
2021/09/16 06:49:02;;;;;;;13.93;5.70;;;14.70;93.40;;;;;;5095243;28;20194;-89
2021/09/16 06:51:27;;;;;;;12.20;6.47;;;14.70;93.10;;;;;;5095620;28;20201;-89
2021/09/16 06:53:54;;;;;;;13.97;5.60;;;14.70;93.20;;;;;;5095834;28;20178;-91
2021/09/16 06:56:20;;;;;;;15.93;6.73;;;14.80;93.20;;;;;;5095224;28;20674;-91
2021/09/16 06:58:46;;;;;;;12.87;7.50;;;14.70;93.20;;;;;;5095400;28;20186;-91
2021/09/16 07:01:11;;;;;;;10.87;6.83;;;14.80;93.40;;;;;;5095218;28;20186;-91
2021/09/16 07:03:37;;;;;;;14.63;8.07;;;14.80;93.40;;;;;;5095142;28;20171;-91
2021/09/16 07:06:03;;;;;;;13.93;8.57;;;14.80;93.50;;;;;;5094996;28;20183;-90
2021/09/16 07:08:29;;;;;;;14.30;7.77;;;14.80;93.70;;;;;;5095018;28;20707;-91
2021/09/16 07:10:54;;;;;;;13.87;7.70;;;14.80;93.80;;;;;;5095175;28;20613;-90
2021/09/16 07:13:20;;;;;;;13.73;8.20;;;14.80;93.80;;;;;;5095724;28;20685;-90
2021/09/16 07:15:46;;;;;;;14.90;7.73;;;14.90;93.90;;;;;;5094877;28;20230;-91
2021/09/16 07:18:11;;;;;;;18.03;8.00;;;14.90;93.80;;;;;;5094785;28;20182;-89
2021/09/16 07:20:39;;;;;;;9.73;6.85;;;15.00;93.60;;;;;;5094698;28;20175;-89
2021/09/16 07:23:05;;;;;;;12.13;7.80;;;15.00;93.70;;;;;;5094517;28;20190;-89
2021/09/16 07:25:31;;;;;;;16.40;9.15;;;15.10;93.60;;;;;;5094544;28;20189;-90
2021/09/16 07:27:56;;;;;;;14.40;7.43;;;15.20;93.60;;;;;;5094644;28;20202;-89
2021/09/16 07:30:22;;;;;;;16.57;8.30;;;15.20;93.50;;;;;;5094517;28;20170;-89
2021/09/16 07:32:48;;;;;;;14.27;7.95;;;15.20;93.30;;;;;;5094690;28;20289;-90
2021/09/16 07:35:13;;;;;;;15.37;8.77;;;15.30;93.30;;;;;;5094215;28;20209;-89
2021/09/16 07:37:39;;;;;;;12.07;7.37;;;15.30;93.00;;;;;;5094354;28;20182;-90
2021/09/16 07:40:06;;;;;;;11.32;6.57;;;15.40;93.10;;;;;;5094131;28;20166;-90
2021/09/16 07:42:31;;;;;;;14.50;7.75;;;15.50;92.70;;;;;;5094182;28;20230;-89
2021/09/16 07:44:57;;;;;;;16.05;7.45;;;15.50;92.50;;;;;;5094073;28;20175;-89
2021/09/16 07:47:22;;;;;;;10.82;7.32;;;15.50;92.40;;;;;;5095269;28;20178;-90
2021/09/16 07:49:48;;;;;;;10.57;6.68;;;15.50;92.40;;;;;;5094478;28;20690;-90
2021/09/16 07:52:14;;;;;;;11.50;6.15;;;15.50;92.10;;;;;;5094148;28;20199;-91
2021/09/16 07:54:40;;;;;;;10.32;5.80;;;15.50;91.80;;;;;;5093778;28;20237;-91
2021/09/16 07:57:06;;;;;;;10.10;5.57;;;15.50;92.00;;;;;;5094045;28;20181;-91
2021/09/16 07:59:32;;;;;;;11.25;6.82;;;15.50;92.00;;;;;;5093975;28;20171;-91
2021/09/16 08:01:58;;;;;;;13.45;8.65;;;15.40;91.70;;;;;;5094013;28;20669;-91
2021/09/16 08:04:23;;;;;;;15.90;9.70;;;15.60;92.00;;;;;;5094013;28;20265;-91
2021/09/16 08:06:49;;;;;;;15.85;9.27;;;15.70;91.90;;;;;;5093812;28;20193;-91
2021/09/16 08:09:15;;;;;;;12.68;10.68;;;15.70;91.80;;;;;;5093748;28;20171;-92
2021/09/16 08:11:41;;;;;;;17.13;9.85;;;15.70;91.60;;;;;;5093670;28;20250;-91
2021/09/16 08:14:08;;;;;;;9.25;8.32;;;15.80;91.40;;;;;;5093596;28;20261;-92
2021/09/16 08:16:42;;;;;;;16.83;8.88;;;15.90;91.30;;;;;;5094444;28;20566;-90
2021/09/16 08:19:08;;;;;;;8.57;6.85;;;16.00;91.50;;;;;;5094413;28;20409;-89
2021/09/16 08:21:35;;;;;;;9.57;6.32;;;16.10;91.30;;;;;;5093527;28;20194;-90
2021/09/16 08:24:01;;;;;;;9.85;6.55;;;16.20;91.40;;;;;;5093480;28;20635;-90
2021/09/16 08:26:27;;;;;;;7.85;4.95;;;16.30;91.20;;;;;;5093438;28;20178;-90
2021/09/16 08:28:53;;;;;;;7.93;4.43;;;16.40;90.40;;;;;;5093349;28;20252;-89
2021/09/16 08:31:19;;;;;;;8.63;3.92;;;16.50;90.40;;;;;;5092996;28;20210;-90
2021/09/16 08:33:46;;;;;;;7.97;3.67;;;16.50;90.40;;;;;;5093167;28;20228;-89
2021/09/16 08:36:13;;;;;;;6.53;3.72;;;16.60;90.10;;;;;;5093066;28;20200;-90
2021/09/16 08:38:39;;;;;;;5.78;3.88;;;16.70;90.30;;;;;;5093165;28;20175;-89
2021/09/16 08:41:06;;;;;;;7.25;3.95;;;16.50;89.30;;;;;;5092999;28;20175;-90
2021/09/16 08:43:35;;;;;;;5.88;3.83;;;16.50;89.70;;;;;;5093481;28;20178;-89
2021/09/16 08:46:03;;;;;;;7.70;3.15;;;16.50;89.40;;;;;;5094544;28;20163;-89
2021/09/16 08:48:29;;;;;;;6.65;3.78;;;16.60;89.20;;;;;;5092987;28;20202;-89
2021/09/16 08:50:56;;;;;;;12.05;5.00;;;16.70;89.70;;;;;;5093087;28;20634;-89
2021/09/16 08:53:25;;;;;;;8.15;5.18;;;16.70;89.40;;;;;;5093155;28;20202;-89
2021/09/16 08:55:52;;;;;;;11.60;5.47;;;16.80;89.60;;;;;;5092780;28;20202;-89
2021/09/16 08:58:26;;;;;;;11.50;5.88;;;16.70;89.70;;;;;;5093064;28;20193;-90
2021/09/16 09:00:53;;;;;;;7.45;4.82;;;16.70;89.30;;;;;;5093231;28;20155;-89
2021/09/16 09:03:19;;;;;;;8.85;5.03;;;16.70;89.20;;;;;;5092576;28;20627;-90
2021/09/16 09:05:46;;;;;;;7.85;4.20;;;16.70;89.70;;;;;;5092823;28;20174;-89
2021/09/16 09:08:13;;;;;;;8.52;4.75;;;16.60;88.90;;;;;;5092713;28;20261;-90
2021/09/16 09:10:45;;;;;;;9.48;4.65;;;16.60;89.00;;;;;;5092548;28;20596;-90
2021/09/16 09:13:42;;;;;;;11.00;4.15;;;16.70;89.60;;;;;;5094287;28;20666;-89
2021/09/16 09:16:11;;;;;;;9.93;4.25;;;16.60;89.10;;;;;;5092754;28;20374;-90
2021/09/16 09:18:46;;;;;;;16.17;4.50;;;16.70;89.20;;;;;;5092942;28;20167;-90
2021/09/16 09:21:16;;;;;;;16.17;4.80;;;16.70;89.10;;;;;;5092437;28;20186;-90
2021/09/16 09:23:54;;;;;;;13.25;4.57;;;16.70;88.80;;;;;;5092833;28;20258;-90
2021/09/16 09:26:37;;;;;;;13.65;4.60;;;16.80;89.00;;;;;;5093720;28;20272;-90
2021/09/16 09:29:09;;;;;;;8.52;3.97;;;16.80;88.50;;;;;;5092446;28;20245;-89
2021/09/16 09:31:41;;;;;;;11.43;4.28;;;16.90;88.80;;;;;;5092219;28;20198;-91
2021/09/16 09:34:25;;;;;;;12.73;4.55;;;17.00;88.60;;;;;;5092517;28;20166;-91
2021/09/16 09:37:04;;;;;;;13.82;4.40;;;17.00;88.40;;;;;;5092656;28;20209;-91
2021/09/16 09:39:30;;;;;;;6.82;3.90;;;17.10;88.30;;;;;;5092757;28;20165;-90
2021/09/16 09:42:26;;;;;;;5.82;3.58;;;17.00;88.10;;;;;;5094151;28;20670;-91
2021/09/16 09:45:07;;;;;;;10.80;4.63;;;17.00;87.90;;;;;;5092932;28;20163;-90
2021/09/16 09:47:41;;;;;;;9.82;4.00;;;17.00;87.60;;;;;;5093901;28;20216;-91
2021/09/16 09:50:27;;;;;;;10.60;4.22;;;17.00;87.70;;;;;;5093123;28;20192;-92
2021/09/16 09:53:10;;;;;;;10.40;3.88;;;17.00;87.70;;;;;;5092606;28;20611;-91
2021/09/16 09:55:40;;;;;;;8.65;4.38;;;17.00;87.40;;;;;;5092628;28;20191;-91
2021/09/16 09:58:05;;;;;;;11.23;4.35;;;17.10;87.80;;;;;;5094031;28;20151;-91
2021/09/16 10:00:39;;;;;;;7.80;3.67;;;17.10;87.10;;;;;;5092899;28;20171;-89
2021/09/16 10:03:06;;;;;;;8.35;3.63;;;17.20;86.90;;;;;;5094305;28;20194;-91
2021/09/16 10:05:39;;;;;;;9.90;3.83;;;17.30;86.60;;;;;;5094333;28;20222;-91
2021/09/16 10:08:04;;;;;;;8.75;3.78;;;17.30;86.90;;;;;;5095697;28;20608;-91
2021/09/16 10:10:36;;;;;;;9.85;3.75;;;17.30;86.80;;;;;;5095342;28;20166;-91
2021/09/16 10:13:01;;;;;;;8.38;3.53;;;17.30;86.20;;;;;;5094930;28;20183;-91
2021/09/16 10:15:27;;;;;;;8.60;2.97;;;17.20;87.70;;;;;;5094694;28;20706;-91
2021/09/16 10:17:54;;;;;;;13.35;3.70;;;17.20;87.70;;;;;;5099592;28;20201;-91
2021/09/16 10:20:25;;;;;;;11.20;3.45;;;17.20;87.10;;;;;;5099648;28;20163;-90
2021/09/16 10:22:56;;;;;;;9.88;2.80;;;17.20;86.90;;;;;;5098584;28;20207;-91
2021/09/16 10:25:28;;;;;;;4.72;2.45;;;17.20;86.80;;;;;;5097827;28;20628;-91
2021/09/16 10:28:03;;;;;;;8.55;2.33;;;17.30;86.30;;;;;;5100026;28;20514;-90
2021/09/16 10:30:34;;;;;;;6.82;2.08;;;17.30;85.40;;;;;;5098747;28;20174;-91
2021/09/16 10:33:18;;;;;;;6.20;1.98;;;17.40;85.70;;;;;;5098605;28;20199;-91
2021/09/16 10:35:59;;;;;;;9.50;2.20;;;17.50;85.70;;;;;;5098199;28;20246;-91
2021/09/16 10:38:48;;;;;;;3.47;1.85;;;17.60;85.60;;;;;;5098425;28;20167;-91
2021/09/16 10:41:28;;;;;;;5.43;2.05;;;17.70;84.80;;;;;;5098116;28;20175;-91
2021/09/16 10:43:59;;;;;;;5.10;1.83;;;18.00;84.00;;;;;;5096850;28;20161;-91
2021/09/16 10:46:43;;;;;;;8.20;1.92;;;18.10;84.10;;;;;;5099070;28;20166;-90
2021/09/16 10:49:24;;;;;;;6.35;2.53;;;18.20;83.60;;;;;;5097217;28;20195;-91
2021/09/16 10:52:17;;;;;;;6.85;1.55;;;18.30;83.80;;;;;;5097283;28;20209;-90
2021/09/16 10:55:05;;;;;;;6.38;1.85;;;18.20;82.90;;;;;;5098981;28;20209;-91
2021/09/16 10:57:38;;;;;;;3.33;1.55;;;18.20;83.50;;;;;;5095475;28;20159;-88
2021/09/16 11:00:12;;;;;;;5.38;1.45;;;18.20;82.90;;;;;;5095449;28;20163;-88
2021/09/16 11:02:42;;;;;;;4.65;1.40;;;18.10;83.00;;;;;;5096580;28;20182;-88
2021/09/16 11:05:14;;;;;;;4.68;1.55;;;18.10;82.10;;;;;;5095307;28;20202;-88
2021/09/16 11:07:49;;;;;;;3.53;1.60;;;18.10;82.90;;;;;;5095174;28;20598;-88
2021/09/16 11:10:19;;;;;;;5.30;1.45;;;18.20;83.70;;;;;;5095179;28;20166;-88
2021/09/16 11:12:49;;;;;;;5.82;1.35;;;18.30;82.70;;;;;;5095250;28;20612;-89
2021/09/16 11:15:16;;;;;;;4.47;1.48;;;18.30;82.20;;;;;;5095810;28;20281;-89
2021/09/16 11:17:43;;;;;;;10.30;1.80;;;18.20;82.40;;;;;;5095205;28;20179;-89
2021/09/16 11:20:12;;;;;;;5.82;1.65;;;18.20;82.90;;;;;;5094638;28;20223;-89
2021/09/16 11:22:38;;;;;;;7.38;1.60;;;18.10;81.80;;;;;;5095957;28;20218;-89
2021/09/16 11:25:06;;;;;;;9.50;1.65;;;18.20;82.80;;;;;;5096020;28;20238;-89
2021/09/16 11:27:35;;;;;;;4.85;1.70;;;18.00;82.80;;;;;;5092629;28;20949;-89
2021/09/16 11:30:02;;;;;;;5.22;1.60;;;17.80;83.00;;;;;;5094369;28;20179;-88
2021/09/16 11:32:37;;;;;;;5.43;1.58;;;17.70;83.80;;;;;;5094419;28;20251;-88
2021/09/16 11:35:10;;;;;;;5.15;1.92;;;17.60;84.00;;;;;;5094277;28;20206;-88
2021/09/16 11:37:48;;;;;;;5.25;1.45;;;17.40;85.00;;;;;;5094546;28;20163;-88
2021/09/16 11:40:44;;;;;;;3.17;1.30;;;17.70;86.30;;;;;;5094245;28;20163;-88
2021/09/16 11:43:14;;;;;;;5.22;1.50;;;18.30;86.30;;;;;;5090777;28;20273;-88
2021/09/16 11:45:47;;;;;;;5.10;1.38;;;18.20;83.80;;;;;;5094377;28;20182;-88
2021/09/16 11:48:18;;;;;;;8.30;1.90;;;18.30;84.30;;;;;;5095691;28;20226;-88
2021/09/16 11:50:47;;;;;;;5.72;1.73;;;18.30;82.60;;;;;;5094175;28;20719;-88
2021/09/16 11:53:18;;;;;;;6.22;1.38;;;18.30;82.10;;;;;;5094323;28;20210;-88
2021/09/16 11:55:46;;;;;;;7.55;1.95;;;18.20;83.20;;;;;;5093950;28;20209;-89
2021/09/16 11:58:16;;;;;;;7.72;2.17;;;18.20;83.50;;;;;;5095145;28;20254;-87
2021/09/16 12:00:57;;;;;;;6.85;2.22;;;18.10;83.60;;;;;;5093901;28;20669;-88
2021/09/16 12:03:25;;;;;;;9.30;1.83;;;18.10;83.40;;;;;;5093940;28;20193;-87
2021/09/16 12:05:56;;;;;;;6.00;2.03;;;18.10;84.30;;;;;;5093887;28;20232;-87
2021/09/16 12:08:36;;;;;;;5.95;1.92;;;18.20;84.40;;;;;;5093832;28;20220;-88
2021/09/16 12:11:09;;;;;;;8.25;2.10;;;17.90;84.00;;;;;;5093769;28;20245;-88
2021/09/16 12:13:46;;;;;;;7.55;2.85;;;18.00;84.70;;;;;;5093933;28;20594;-87
2021/09/16 12:16:17;;;;;;;5.85;2.10;;;18.00;84.30;;;;;;5093607;28;20194;-89
2021/09/16 12:18:54;;;;;;;10.70;1.98;;;17.80;85.10;;;;;;5093661;28;20155;-89
2021/09/16 12:21:28;;;;;;;5.90;2.15;;;17.50;86.80;;;;;;5093603;28;20182;-89
2021/09/16 12:23:55;;;;;;;14.48;2.50;;;17.60;87.30;;;;;;5093575;28;20171;-89
2021/09/16 12:26:25;;;;;;;7.18;2.15;;;17.60;87.90;;;;;;5093994;28;20183;-89
2021/09/16 12:29:24;;;;;;;6.57;2.40;;;17.60;88.10;;;;;;5093570;28;20551;-89
2021/09/16 12:32:04;;;;;;;6.35;2.17;;;17.40;87.70;;;;;;5092733;28;20199;-89
2021/09/16 12:34:36;;;;;;;6.00;2.42;;;18.00;88.70;;;;;;5093278;28;20174;-89
2021/09/16 12:37:04;;;;;;;8.45;2.10;;;18.10;87.00;;;;;;5093417;28;20564;-88
2021/09/16 12:39:40;;;;;;;8.10;1.98;;;17.80;86.90;;;;;;5093091;28;20171;-89
2021/09/16 12:42:09;;;;;;;4.88;1.52;;;17.80;86.50;;;;;;5093282;28;20194;-89
2021/09/16 12:44:37;;;;;;;8.95;1.98;;;17.80;86.30;;;;;;5093457;28;20171;-89
2021/09/16 12:47:07;;;;;;;7.65;2.22;;;17.50;85.90;;;;;;5093577;28;20178;-89
2021/09/16 12:49:51;;;;;;;8.15;2.22;;;17.50;86.30;;;;;;5093144;28;20642;-89